Kezdőlap
METAR-TAF:

METAR-TAF

Repülőterek :

Lamoni Municipal Airport

Lamoni, Iowa, Amerikai Egyesült Államok

földrajzi szélesség: 40-37-50N, földrajzi hosszúság: 093-54-03W, magasság: 344 m

Jelenlegi meteorológiai megfigyelések

A jelentés 1 órával és 8 perccel ezelõtt készült, 06:53 UTC
Keleti szél 4 kt
Hőmérséklet 23°C
Páratartalom 94%
Légköri nyomás 1014 hPa
Látótávolság: 14.5 km
Szórványos felhőzet 5500 lábon
Szakadozott felhőzet 11000 lábon

METAR: KLWD 070653Z AUTO 08004KT 9SM SCT055 BKN110 23/22 A2994 RMK AO2 LTG DSNT S SLP130 T02280217

Idő: 03:01 (08:01 UTC)


TAF: hiányzik

Meteorológiai megfigyelések és előrejelzések több, mint 4000 repülőtéren (METAR és TAF jelentéseket).

A térképen piros és sárga pontok jelzik az elérhető meteorológiai állomásokat.

Mozgassa az egeret a pont fölött, hogy megjelenjen az állomás neve.

Azután kattintson az időjárási megfigyelések és előrejelzések megtekintéséhez.

A térkép megváltoztatása: kattintson a fekete keresztel jelölt zöld gombra ráközelítéshez, a vonallal jelölt zöld gombra távolításhoz, vagy a zöld nyilakra a szomszédos térképek eléréséhez.


METAR-TAF: